Time;durP1;ratioP1;P1;durP2;ratioP2;P2;SDS_P1;SDS_P2;PMS_P1;PMS_P2;Temp;Humidity;BMP_temperature;BMP_pressure;BME280_temperature;BME280_humidity;BME280_pressure;Samples;Min_cycle;Max_cycle;Signal;HPM_P1;HPM_P2
2021/06/21 00:01:26;;;;;;;15.75;5.03;;;;;;;;;;5018594;28;20048;-62
2021/06/21 00:03:54;;;;;;;18.73;5.40;;;;;;;;;;5023553;28;20428;-61
2021/06/21 00:06:24;;;;;;;16.67;4.45;;;;;;;;;;5027685;28;20050;-61
2021/06/21 00:08:53;;;;;;;15.13;5.10;;;;;;;;;;5013175;28;20052;-61
2021/06/21 00:11:21;;;;;;;24.40;5.10;;;;;;;;;;5013932;28;20619;-62
2021/06/21 00:13:49;;;;;;;19.17;4.53;;;;;;;;;;5013227;28;20133;-61
2021/06/21 00:16:18;;;;;;;18.00;5.40;;;;;;;;;;5011313;28;20064;-61
2021/06/21 00:18:46;;;;;;;18.67;5.65;;;;;;;;;;5029036;28;20080;-61
2021/06/21 00:21:15;;;;;;;13.18;4.53;;;;;;;;;;5030030;28;20081;-61
2021/06/21 00:23:44;;;;;;;23.88;5.20;;;;;;;;;;5013862;28;20049;-61
2021/06/21 00:26:12;;;;;;;17.83;5.20;;;;;;;;;;5011207;28;20570;-62
2021/06/21 00:28:41;;;;;;;22.58;5.78;;;;;;;;;;5030712;28;20133;-62
2021/06/21 00:31:09;;;;;;;18.63;5.03;;;;;;;;;;5033177;28;20144;-62
2021/06/21 00:33:37;;;;;;;14.32;5.28;;;;;;;;;;5018447;28;20437;-62
2021/06/21 00:36:07;;;;;;;15.38;5.05;;;;;;;;;;5024029;28;20057;-61
2021/06/21 00:38:35;;;;;;;17.02;5.05;;;;;;;;;;5018116;28;20104;-63
2021/06/21 00:41:05;;;;;;;13.10;4.43;;;;;;;;;;5018122;28;20153;-61
2021/06/21 00:43:33;;;;;;;17.35;4.88;;;;;;;;;;5017982;28;20494;-63
2021/06/21 00:46:02;;;;;;;17.13;4.82;;;;;;;;;;5032998;28;20080;-63
2021/06/21 00:48:30;;;;;;;14.60;4.97;;;;;;;;;;5024256;28;20469;-62
2021/06/21 00:50:58;;;;;;;16.58;4.78;;;;;;;;;;5036244;28;20058;-62
2021/06/21 00:53:28;;;;;;;18.15;4.43;;;;;;;;;;5030393;28;20084;-62
2021/06/21 00:55:56;;;;;;;14.98;4.60;;;;;;;;;;5016196;28;20149;-63
2021/06/21 00:58:26;;;;;;;17.05;3.85;;;;;;;;;;5031524;28;20105;-62
2021/06/21 01:00:54;;;;;;;13.52;3.90;;;;;;;;;;5030797;28;20508;-62
2021/06/21 01:03:22;;;;;;;12.98;3.75;;;;;;;;;;5033238;28;20050;-62
2021/06/21 01:05:51;;;;;;;14.13;3.95;;;;;;;;;;5031657;28;20161;-61
2021/06/21 01:08:19;;;;;;;16.15;4.18;;;;;;;;;;5032543;28;20050;-61
2021/06/21 01:10:49;;;;;;;14.70;4.55;;;;;;;;;;5031613;28;20129;-61
2021/06/21 01:13:32;;;;;;;17.25;4.90;;;;;;;;;;5030348;28;20124;-62
2021/06/21 01:16:12;;;;;;;14.05;4.05;;;;;;;;;;5000642;28;20052;-62
2021/06/21 01:18:44;;;;;;;21.10;5.22;;;;;;;;;;5022199;28;20475;-61
2021/06/21 01:21:30;;;;;;;17.88;5.10;;;;;;;;;;5018762;28;20683;-62
2021/06/21 01:24:12;;;;;;;18.15;5.78;;;;;;;;;;5022622;28;20384;-62
2021/06/21 01:26:44;;;;;;;19.02;5.53;;;;;;;;;;5019556;28;20041;-62
2021/06/21 01:29:36;;;;;;;16.02;5.32;;;;;;;;;;5017079;28;20400;-62
2021/06/21 01:32:10;;;;;;;12.30;5.40;;;;;;;;;;4999491;28;20049;-61
2021/06/21 01:34:43;;;;;;;19.15;5.63;;;;;;;;;;5021030;28;20051;-63
2021/06/21 01:37:13;;;;;;;26.48;5.88;;;;;;;;;;5023286;28;20046;-62
2021/06/21 01:39:41;;;;;;;17.45;5.60;;;;;;;;;;5017600;28;20053;-62
2021/06/21 01:42:11;;;;;;;17.08;5.28;;;;;;;;;;5018150;28;20537;-63
2021/06/21 01:44:41;;;;;;;19.40;5.93;;;;;;;;;;5020036;28;20132;-62
2021/06/21 01:47:10;;;;;;;20.98;5.30;;;;;;;;;;5019498;28;20071;-63
2021/06/21 01:49:41;;;;;;;20.80;5.38;;;;;;;;;;5018511;28;20076;-62
2021/06/21 01:52:11;;;;;;;19.58;5.78;;;;;;;;;;5019129;28;20049;-62
2021/06/21 01:54:43;;;;;;;18.63;5.80;;;;;;;;;;5019393;28;20477;-62
2021/06/21 01:57:11;;;;;;;15.68;5.22;;;;;;;;;;5021422;28;20128;-62
2021/06/21 01:59:39;;;;;;;15.50;5.00;;;;;;;;;;5019559;28;20068;-62
2021/06/21 02:02:09;;;;;;;15.75;4.47;;;;;;;;;;5015578;28;20129;-62
2021/06/21 02:04:37;;;;;;;24.63;5.35;;;;;;;;;;5017532;28;20041;-62
2021/06/21 02:07:08;;;;;;;15.85;4.82;;;;;;;;;;5020485;28;20156;-62
2021/06/21 02:09:37;;;;;;;14.55;4.32;;;;;;;;;;5015707;28;20049;-62
2021/06/21 02:12:06;;;;;;;16.05;4.90;;;;;;;;;;5016409;28;20730;-63
2021/06/21 02:14:35;;;;;;;16.45;4.03;;;;;;;;;;5019487;28;20167;-63
2021/06/21 02:17:04;;;;;;;17.45;4.95;;;;;;;;;;5015987;28;20498;-62
2021/06/21 02:19:33;;;;;;;13.07;3.97;;;;;;;;;;5014789;28;20117;-62
2021/06/21 02:22:02;;;;;;;16.35;4.30;;;;;;;;;;5018357;28;20128;-63
2021/06/21 02:24:32;;;;;;;13.73;4.60;;;;;;;;;;5018457;28;20052;-62
2021/06/21 02:27:00;;;;;;;17.38;5.90;;;;;;;;;;5023894;28;20056;-63
2021/06/21 02:29:29;;;;;;;23.67;5.82;;;;;;;;;;5028844;28;20060;-63
2021/06/21 02:31:57;;;;;;;12.63;4.72;;;;;;;;;;5031265;28;20049;-61
2021/06/21 02:34:26;;;;;;;18.30;5.53;;;;;;;;;;5031109;28;20057;-62
2021/06/21 02:36:54;;;;;;;16.85;5.25;;;;;;;;;;5029958;28;20049;-62
2021/06/21 02:39:22;;;;;;;17.65;6.18;;;;;;;;;;5031277;28;20071;-62
2021/06/21 02:41:52;;;;;;;23.27;6.93;;;;;;;;;;5024056;28;20144;-62
2021/06/21 02:44:20;;;;;;;20.77;5.68;;;;;;;;;;5027973;28;20432;-62
2021/06/21 02:46:48;;;;;;;24.38;5.90;;;;;;;;;;5029922;28;20053;-63
2021/06/21 02:49:17;;;;;;;18.27;5.53;;;;;;;;;;5019285;28;20144;-62
2021/06/21 02:51:47;;;;;;;17.08;5.07;;;;;;;;;;5031149;28;20129;-62
2021/06/21 02:54:18;;;;;;;18.88;5.03;;;;;;;;;;5020329;28;20049;-62
2021/06/21 02:56:51;;;;;;;19.48;5.50;;;;;;;;;;5028657;28;20128;-62
2021/06/21 02:59:22;;;;;;;18.95;5.45;;;;;;;;;;5029082;28;20221;-63
2021/06/21 03:01:52;;;;;;;15.07;4.38;;;;;;;;;;5029640;28;20128;-62
2021/06/21 03:04:21;;;;;;;13.55;4.72;;;;;;;;;;5030464;28;20053;-61
2021/06/21 03:06:50;;;;;;;21.98;5.20;;;;;;;;;;5026734;28;20132;-62
2021/06/21 03:09:19;;;;;;;21.48;6.45;;;;;;;;;;5029637;28;20545;-61
2021/06/21 03:11:51;;;;;;;17.83;4.88;;;;;;;;;;5021330;28;20133;-61
2021/06/21 03:14:24;;;;;;;17.35;5.25;;;;;;;;;;5023297;28;20449;-63
2021/06/21 03:16:53;;;;;;;18.23;5.07;;;;;;;;;;5023994;28;20172;-62
2021/06/21 03:19:21;;;;;;;20.63;5.30;;;;;;;;;;5022516;28;20077;-62
2021/06/21 03:21:50;;;;;;;15.70;4.97;;;;;;;;;;5029230;28;20045;-62
2021/06/21 03:24:23;;;;;;;11.60;4.40;;;;;;;;;;5031624;28;20053;-62
2021/06/21 03:26:51;;;;;;;15.13;4.25;;;;;;;;;;5026572;28;20360;-62
2021/06/21 03:29:21;;;;;;;16.30;4.00;;;;;;;;;;5019253;28;20140;-63
2021/06/21 03:31:51;;;;;;;13.55;4.60;;;;;;;;;;5013661;28;20138;-63
2021/06/21 03:34:23;;;;;;;13.18;4.50;;;;;;;;;;5016137;28;20056;-62
2021/06/21 03:36:52;;;;;;;13.95;4.50;;;;;;;;;;5024389;28;20140;-62
2021/06/21 03:39:20;;;;;;;17.27;4.72;;;;;;;;;;5031623;28;20135;-62
2021/06/21 03:41:48;;;;;;;24.42;4.57;;;;;;;;;;5028756;28;20045;-62
2021/06/21 03:44:17;;;;;;;12.50;4.07;;;;;;;;;;5031408;28;20128;-62
2021/06/21 03:46:45;;;;;;;17.95;4.53;;;;;;;;;;5028082;28;20460;-62
2021/06/21 03:49:15;;;;;;;12.52;4.47;;;;;;;;;;5018222;28;20078;-62
2021/06/21 03:51:43;;;;;;;19.20;4.55;;;;;;;;;;5029047;28;20041;-63
2021/06/21 03:54:11;;;;;;;15.52;4.50;;;;;;;;;;5029353;28;20501;-63
2021/06/21 03:56:39;;;;;;;17.70;4.82;;;;;;;;;;5014374;28;20053;-63
2021/06/21 03:59:08;;;;;;;12.52;4.13;;;;;;;;;;5018516;28;20136;-63
2021/06/21 04:01:36;;;;;;;16.38;4.70;;;;;;;;;;5028070;28;20513;-62
2021/06/21 04:04:05;;;;;;;15.82;3.80;;;;;;;;;;5029882;28;20107;-62
2021/06/21 04:06:34;;;;;;;14.93;4.10;;;;;;;;;;5025761;28;20045;-62
2021/06/21 04:09:03;;;;;;;13.00;3.55;;;;;;;;;;5018720;28;20087;-63
2021/06/21 04:11:31;;;;;;;10.23;4.03;;;;;;;;;;5013422;28;20624;-62
2021/06/21 04:14:00;;;;;;;12.05;4.10;;;;;;;;;;5012828;28;20231;-62
2021/06/21 04:16:28;;;;;;;14.70;4.20;;;;;;;;;;5019150;28;20080;-62
2021/06/21 04:18:56;;;;;;;12.45;3.50;;;;;;;;;;5027952;28;20136;-62
2021/06/21 04:21:25;;;;;;;15.05;4.18;;;;;;;;;;5030230;28;20049;-62
2021/06/21 04:23:55;;;;;;;18.45;4.05;;;;;;;;;;5028025;28;20044;-62
2021/06/21 04:26:23;;;;;;;14.57;3.83;;;;;;;;;;5024606;28;20085;-62
2021/06/21 04:28:52;;;;;;;11.65;4.60;;;;;;;;;;5010434;28;20058;-62
2021/06/21 04:31:20;;;;;;;17.85;3.80;;;;;;;;;;5029971;28;20050;-63
2021/06/21 04:33:48;;;;;;;15.25;3.42;;;;;;;;;;5015275;28;20049;-62
2021/06/21 04:36:17;;;;;;;15.57;3.65;;;;;;;;;;5029797;28;20041;-63
2021/06/21 04:38:45;;;;;;;14.90;3.97;;;;;;;;;;5017718;28;20497;-62
2021/06/21 04:41:15;;;;;;;18.15;3.97;;;;;;;;;;5029498;28;20090;-61
2021/06/21 04:43:44;;;;;;;11.63;3.22;;;;;;;;;;5025880;28;20049;-61
2021/06/21 04:46:12;;;;;;;12.15;2.92;;;;;;;;;;5019685;28;20368;-62
2021/06/21 04:48:41;;;;;;;11.82;3.75;;;;;;;;;;5015239;28;20050;-62
2021/06/21 04:51:09;;;;;;;16.48;4.18;;;;;;;;;;5014627;28;20434;-63
2021/06/21 04:53:37;;;;;;;13.20;3.55;;;;;;;;;;5018059;28;20108;-62
2021/06/21 04:56:06;;;;;;;16.83;3.30;;;;;;;;;;5026220;28;20063;-62
2021/06/21 04:58:35;;;;;;;15.30;3.47;;;;;;;;;;4997208;28;20046;-62
2021/06/21 05:01:06;;;;;;;18.35;3.08;;;;;;;;;;4998011;28;20050;-62
2021/06/21 05:03:36;;;;;;;14.65;3.20;;;;;;;;;;5006726;28;20066;-62
2021/06/21 05:06:05;;;;;;;15.48;3.50;;;;;;;;;;5000914;28;20060;-62
2021/06/21 05:08:34;;;;;;;16.30;3.25;;;;;;;;;;5005430;28;20473;-62
2021/06/21 05:11:02;;;;;;;13.73;2.75;;;;;;;;;;5018008;28;20081;-62
2021/06/21 05:13:31;;;;;;;12.07;3.95;;;;;;;;;;5004474;28;20046;-63
2021/06/21 05:16:00;;;;;;;13.55;3.35;;;;;;;;;;5004414;28;20125;-61
2021/06/21 05:18:29;;;;;;;20.15;4.38;;;;;;;;;;5004726;28;20046;-61
2021/06/21 05:20:58;;;;;;;13.43;3.05;;;;;;;;;;5007826;28;20093;-62
2021/06/21 05:23:26;;;;;;;17.55;3.03;;;;;;;;;;5008260;28;20076;-62
2021/06/21 05:25:54;;;;;;;18.40;4.60;;;;;;;;;;5007791;28;20041;-62
2021/06/21 05:28:23;;;;;;;16.05;3.22;;;;;;;;;;5006356;28;20128;-62
2021/06/21 05:30:52;;;;;;;18.80;3.85;;;;;;;;;;5011662;28;20068;-62
2021/06/21 05:33:22;;;;;;;12.07;3.20;;;;;;;;;;5011884;28;20124;-62
2021/06/21 05:35:50;;;;;;;15.35;2.95;;;;;;;;;;5011546;28;20455;-62
2021/06/21 05:38:18;;;;;;;11.65;3.38;;;;;;;;;;5027688;28;20056;-63
2021/06/21 05:40:47;;;;;;;15.50;3.13;;;;;;;;;;5024977;28;20168;-62
2021/06/21 05:43:15;;;;;;;13.75;3.15;;;;;;;;;;5020440;28;20073;-63
2021/06/21 05:45:44;;;;;;;11.20;2.70;;;;;;;;;;5018071;28;20054;-62
2021/06/21 05:48:16;;;;;;;14.93;3.08;;;;;;;;;;5020252;28;20054;-62
2021/06/21 05:50:46;;;;;;;13.93;3.20;;;;;;;;;;5019454;28;20053;-62
2021/06/21 05:53:14;;;;;;;15.60;2.88;;;;;;;;;;5013145;28;20049;-62
2021/06/21 05:55:43;;;;;;;12.77;3.28;;;;;;;;;;5015820;28;20495;-62
2021/06/21 05:58:11;;;;;;;12.00;2.70;;;;;;;;;;5018650;28;20466;-62
2021/06/21 06:00:39;;;;;;;13.55;2.70;;;;;;;;;;5016335;28;20059;-63
2021/06/21 06:03:07;;;;;;;10.70;2.60;;;;;;;;;;5014877;28;20584;-62
2021/06/21 06:05:36;;;;;;;16.08;2.90;;;;;;;;;;5012547;28;20398;-62
2021/06/21 06:08:06;;;;;;;9.63;2.20;;;;;;;;;;5026400;28;20140;-62
2021/06/21 06:10:34;;;;;;;11.13;2.85;;;;;;;;;;5020996;28;20304;-63
2021/06/21 06:13:03;;;;;;;10.23;2.65;;;;;;;;;;5014842;28;20148;-62
2021/06/21 06:15:31;;;;;;;16.08;3.28;;;;;;;;;;5013599;28;20042;-61
2021/06/21 06:18:00;;;;;;;13.80;2.38;;;;;;;;;;5007140;28;20085;-62
2021/06/21 06:20:28;;;;;;;15.35;3.28;;;;;;;;;;5007151;28;20737;-62
2021/06/21 06:22:57;;;;;;;14.85;2.58;;;;;;;;;;5008184;28;20089;-63
2021/06/21 06:25:27;;;;;;;13.70;2.10;;;;;;;;;;5008043;28;20085;-63
2021/06/21 06:27:56;;;;;;;16.20;2.88;;;;;;;;;;5003772;28;20050;-63
2021/06/21 06:30:24;;;;;;;10.40;2.38;;;;;;;;;;5000563;28;20085;-63
2021/06/21 06:32:53;;;;;;;6.80;1.85;;;;;;;;;;5000903;28;20590;-63
2021/06/21 06:35:21;;;;;;;17.35;2.53;;;;;;;;;;5001528;28;20129;-63
2021/06/21 06:37:50;;;;;;;17.20;2.47;;;;;;;;;;5002005;28;20141;-63
2021/06/21 06:40:19;;;;;;;8.25;2.35;;;;;;;;;;5003586;28;20520;-63
2021/06/21 06:42:52;;;;;;;11.75;2.78;;;;;;;;;;4997079;28;20132;-63
2021/06/21 06:45:20;;;;;;;11.50;2.45;;;;;;;;;;4994483;28;20049;-63
2021/06/21 06:47:50;;;;;;;11.52;2.45;;;;;;;;;;5017239;28;20183;-62
2021/06/21 06:50:18;;;;;;;9.95;2.97;;;;;;;;;;5015695;28;20037;-62
2021/06/21 06:52:48;;;;;;;12.07;2.35;;;;;;;;;;5022106;28;20049;-62
2021/06/21 06:58:05;;;;;;;14.20;2.40;;;;;;;;;;5019948;28;20509;-63
2021/06/21 07:00:35;;;;;;;13.00;2.95;;;;;;;;;;5025515;28;20152;-64
2021/06/21 07:03:04;;;;;;;11.40;2.40;;;;;;;;;;5008552;28;20466;-63
2021/06/21 07:05:33;;;;;;;11.52;2.28;;;;;;;;;;5013635;28;20072;-62
2021/06/21 07:08:02;;;;;;;10.13;2.53;;;;;;;;;;5002784;28;20074;-63
2021/06/21 07:10:31;;;;;;;10.18;2.58;;;;;;;;;;5006315;28;20153;-63
2021/06/21 07:13:00;;;;;;;13.38;2.30;;;;;;;;;;5005280;28;20140;-62
2021/06/21 07:15:31;;;;;;;12.88;1.75;;;;;;;;;;4995124;28;20050;-62
2021/06/21 07:17:59;;;;;;;10.77;2.15;;;;;;;;;;5009852;28;20060;-62
2021/06/21 07:20:28;;;;;;;13.10;2.20;;;;;;;;;;5007928;28;20050;-62
2021/06/21 07:22:56;;;;;;;7.43;1.67;;;;;;;;;;5013242;28;20077;-61
2021/06/21 07:25:24;;;;;;;12.32;2.60;;;;;;;;;;5022212;28;20126;-63
2021/06/21 07:27:53;;;;;;;12.45;1.85;;;;;;;;;;5016006;28;20045;-63
2021/06/21 07:30:22;;;;;;;10.70;2.20;;;;;;;;;;5025410;28;20140;-62
2021/06/21 07:32:53;;;;;;;7.85;1.90;;;;;;;;;;5026364;28;20053;-64
2021/06/21 07:35:22;;;;;;;13.30;2.17;;;;;;;;;;5025623;28;20060;-62
2021/06/21 07:37:52;;;;;;;15.80;2.72;;;;;;;;;;5016683;28;20041;-62
2021/06/21 07:40:21;;;;;;;9.95;2.00;;;;;;;;;;5020016;28;20041;-62
2021/06/21 07:42:51;;;;;;;10.52;1.90;;;;;;;;;;5020227;28;20510;-62
2021/06/21 07:45:19;;;;;;;8.93;1.90;;;;;;;;;;5011378;28;20045;-63
2021/06/21 07:47:49;;;;;;;7.78;1.73;;;;;;;;;;5004986;28;20408;-63
2021/06/21 07:50:19;;;;;;;8.10;1.88;;;;;;;;;;4996122;28;20398;-61
2021/06/21 07:52:48;;;;;;;11.82;2.25;;;;;;;;;;5000453;28;20046;-62
2021/06/21 07:55:17;;;;;;;9.93;2.33;;;;;;;;;;4996874;28;20069;-61
2021/06/21 07:57:46;;;;;;;9.60;1.50;;;;;;;;;;5005118;28;20064;-61
2021/06/21 08:00:18;;;;;;;14.85;2.22;;;;;;;;;;5005670;28;20058;-61
2021/06/21 08:02:46;;;;;;;13.80;2.47;;;;;;;;;;4989226;28;20082;-61
2021/06/21 08:05:15;;;;;;;12.13;2.08;;;;;;;;;;5010317;28;20088;-61
2021/06/21 08:07:46;;;;;;;10.60;2.05;;;;;;;;;;5000429;28;20085;-63
2021/06/21 08:10:15;;;;;;;10.63;1.90;;;;;;;;;;4992764;28;20050;-63
2021/06/21 08:12:45;;;;;;;9.90;2.47;;;;;;;;;;4992725;28;20045;-62
2021/06/21 08:15:15;;;;;;;8.52;1.73;;;;;;;;;;4997713;28;20050;-61
2021/06/21 08:17:45;;;;;;;9.32;2.40;;;;;;;;;;5000911;28;20101;-62
2021/06/21 08:20:14;;;;;;;8.70;1.83;;;;;;;;;;5006265;28;20057;-62
2021/06/21 08:22:43;;;;;;;15.63;2.13;;;;;;;;;;5005788;28;20049;-61
2021/06/21 08:25:14;;;;;;;8.98;1.92;;;;;;;;;;5004548;28;20061;-61
2021/06/21 08:27:43;;;;;;;12.65;1.98;;;;;;;;;;5017336;28;20120;-62
2021/06/21 08:30:13;;;;;;;9.48;1.70;;;;;;;;;;5013988;28;20133;-61
2021/06/21 08:32:42;;;;;;;7.55;2.03;;;;;;;;;;5001372;28;20046;-62
2021/06/21 08:35:12;;;;;;;14.10;1.83;;;;;;;;;;5019074;28;20056;-61
2021/06/21 08:37:41;;;;;;;12.65;2.03;;;;;;;;;;5009085;28;20145;-61
2021/06/21 08:40:10;;;;;;;7.82;1.42;;;;;;;;;;5002976;28;20481;-62
2021/06/21 08:42:41;;;;;;;10.32;1.98;;;;;;;;;;4998327;28;20038;-62
2021/06/21 08:45:10;;;;;;;9.82;2.22;;;;;;;;;;5003561;28;20411;-62
2021/06/21 08:47:40;;;;;;;11.82;2.35;;;;;;;;;;5000736;28;20052;-63
2021/06/21 08:50:10;;;;;;;8.90;1.80;;;;;;;;;;4999013;28;20112;-62
2021/06/21 08:52:40;;;;;;;14.48;1.90;;;;;;;;;;5002805;28;20126;-62
2021/06/21 08:55:10;;;;;;;9.10;1.85;;;;;;;;;;5010325;28;20069;-62
2021/06/21 08:57:39;;;;;;;14.05;2.25;;;;;;;;;;5004045;28;20053;-62
2021/06/21 09:00:11;;;;;;;12.32;1.85;;;;;;;;;;5001778;28;20135;-62
2021/06/21 09:02:40;;;;;;;8.63;2.03;;;;;;;;;;5009580;28;20505;-62
2021/06/21 09:05:11;;;;;;;9.05;1.50;;;;;;;;;;4991797;28;20097;-62
2021/06/21 09:07:40;;;;;;;9.07;2.00;;;;;;;;;;5011847;28;20042;-62
2021/06/21 09:10:22;;;;;;;8.23;1.75;;;;;;;;;;5016360;28;20128;-63
2021/06/21 09:13:02;;;;;;;11.45;1.85;;;;;;;;;;5008435;28;20050;-62
2021/06/21 09:15:33;;;;;;;10.13;1.98;;;;;;;;;;5022627;28;20041;-62
2021/06/21 09:18:22;;;;;;;6.78;1.75;;;;;;;;;;5025480;28;20660;-61
2021/06/21 09:20:51;;;;;;;12.45;1.70;;;;;;;;;;5024539;28;20060;-63
2021/06/21 09:23:20;;;;;;;11.65;2.30;;;;;;;;;;5028292;28;20052;-62
2021/06/21 09:25:49;;;;;;;6.70;1.60;;;;;;;;;;5028028;28;20063;-63
2021/06/21 09:28:35;;;;;;;13.30;2.10;;;;;;;;;;5005791;28;20050;-62
2021/06/21 09:31:06;;;;;;;9.65;1.95;;;;;;;;;;4993859;28;20244;-62
2021/06/21 09:33:35;;;;;;;7.95;2.45;;;;;;;;;;4998741;28;20052;-62
2021/06/21 09:36:04;;;;;;;6.68;1.90;;;;;;;;;;4999996;28;20119;-63
2021/06/21 09:38:33;;;;;;;10.07;1.83;;;;;;;;;;5001817;28;20668;-62
2021/06/21 09:41:02;;;;;;;7.32;1.88;;;;;;;;;;4997819;28;20050;-62
2021/06/21 09:43:31;;;;;;;10.40;2.00;;;;;;;;;;5006801;28;20045;-62
2021/06/21 09:46:19;;;;;;;12.55;2.05;;;;;;;;;;5012565;28;20060;-62
2021/06/21 09:48:50;;;;;;;10.23;2.42;;;;;;;;;;5004235;28;20058;-63
2021/06/21 09:51:23;;;;;;;7.45;1.73;;;;;;;;;;5006830;28;20062;-62
2021/06/21 09:54:00;;;;;;;10.77;1.60;;;;;;;;;;5004725;28;20401;-63
2021/06/21 09:56:40;;;;;;;9.30;2.30;;;;;;;;;;4998955;28;20054;-62
2021/06/21 09:59:18;;;;;;;8.95;1.65;;;;;;;;;;5005017;28;20050;-62
2021/06/21 10:02:00;;;;;;;11.93;2.22;;;;;;;;;;5004320;28;20105;-63
2021/06/21 10:04:31;;;;;;;10.48;1.85;;;;;;;;;;4966148;28;20051;-62
2021/06/21 10:07:00;;;;;;;7.53;2.05;;;;;;;;;;4971730;28;20891;-64
2021/06/21 10:09:30;;;;;;;7.40;1.90;;;;;;;;;;4956971;28;20055;-62
2021/06/21 10:11:58;;;;;;;7.78;2.05;;;;;;;;;;4961462;28;20050;-63
2021/06/21 10:14:28;;;;;;;7.88;1.60;;;;;;;;;;4967283;28;20046;-62
2021/06/21 10:16:57;;;;;;;12.63;2.88;;;;;;;;;;4971885;28;20069;-62
2021/06/21 10:19:27;;;;;;;10.63;2.40;;;;;;;;;;4972131;28;20062;-62
2021/06/21 10:21:58;;;;;;;6.82;2.00;;;;;;;;;;4963367;28;20078;-62
2021/06/21 10:24:31;;;;;;;8.02;1.73;;;;;;;;;;4977855;28;20058;-62
2021/06/21 10:27:00;;;;;;;9.73;2.20;;;;;;;;;;4978914;28;20077;-62
2021/06/21 10:29:29;;;;;;;6.28;1.83;;;;;;;;;;5005404;28;20058;-62
2021/06/21 10:31:59;;;;;;;8.63;1.70;;;;;;;;;;5008584;28;20128;-61
2021/06/21 10:34:29;;;;;;;10.48;1.80;;;;;;;;;;4999040;28;20049;-63
2021/06/21 10:37:00;;;;;;;6.85;1.50;;;;;;;;;;5008938;28;20058;-62
2021/06/21 10:39:30;;;;;;;11.43;1.70;;;;;;;;;;5007448;28;20046;-62
2021/06/21 10:42:21;;;;;;;8.27;2.05;;;;;;;;;;5004247;28;20154;-61
2021/06/21 10:44:52;;;;;;;8.85;2.00;;;;;;;;;;5008013;28;20084;-62
2021/06/21 10:47:39;;;;;;;10.60;2.30;;;;;;;;;;4997123;28;20119;-62
2021/06/21 10:50:10;;;;;;;9.77;1.83;;;;;;;;;;5006636;28;20458;-62
2021/06/21 10:52:47;;;;;;;5.75;1.77;;;;;;;;;;5006723;28;20048;-62
2021/06/21 10:55:46;;;;;;;9.85;2.30;;;;;;;;;;5007650;28;20050;-62
2021/06/21 10:58:45;;;;;;;7.13;1.40;;;;;;;;;;5004002;28;20067;-61
2021/06/21 11:01:18;;;;;;;6.60;1.80;;;;;;;;;;4997766;28;20053;-62
2021/06/21 11:03:47;;;;;;;10.98;2.03;;;;;;;;;;5002081;28;20141;-62
2021/06/21 11:06:35;;;;;;;12.43;1.80;;;;;;;;;;5014314;28;20137;-61
2021/06/21 11:09:08;;;;;;;8.02;2.20;;;;;;;;;;4994997;28;20046;-62
2021/06/21 11:11:42;;;;;;;7.90;1.80;;;;;;;;;;5006297;28;20060;-62
2021/06/21 11:14:11;;;;;;;8.60;1.60;;;;;;;;;;5003156;28;20134;-62
2021/06/21 11:16:41;;;;;;;10.63;2.03;;;;;;;;;;5007476;28;20137;-62
2021/06/21 11:19:30;;;;;;;8.88;1.90;;;;;;;;;;4990371;28;20061;-62
2021/06/21 11:22:00;;;;;;;8.80;1.88;;;;;;;;;;4990344;28;20162;-62
2021/06/21 11:24:49;;;;;;;7.38;1.45;;;;;;;;;;5001148;28;20057;-63
2021/06/21 11:27:21;;;;;;;10.50;1.98;;;;;;;;;;4991961;28;20073;-62
2021/06/21 11:29:51;;;;;;;11.30;2.28;;;;;;;;;;4992769;28;20062;-62
2021/06/21 11:32:20;;;;;;;7.65;1.98;;;;;;;;;;5009756;28;20050;-63
2021/06/21 11:34:53;;;;;;;7.43;1.83;;;;;;;;;;5000696;28;20557;-63
2021/06/21 11:37:48;;;;;;;8.82;1.80;;;;;;;;;;4991733;28;20045;-62
2021/06/21 11:40:37;;;;;;;8.63;2.45;;;;;;;;;;4998825;28;20053;-62
2021/06/21 11:43:27;;;;;;;7.18;1.83;;;;;;;;;;4998839;28;20050;-62
2021/06/21 11:45:59;;;;;;;10.52;2.15;;;;;;;;;;5008537;28;20414;-62
2021/06/21 11:48:31;;;;;;;11.88;2.22;;;;;;;;;;4967551;28;20513;-62
2021/06/21 11:51:01;;;;;;;11.00;1.73;;;;;;;;;;4993178;28;20137;-63
2021/06/21 11:53:30;;;;;;;11.85;2.45;;;;;;;;;;4994157;28;20543;-62
2021/06/21 11:55:59;;;;;;;8.57;1.58;;;;;;;;;;4997155;28;20517;-63
2021/06/21 11:58:28;;;;;;;9.63;2.20;;;;;;;;;;4993195;28;20164;-63
2021/06/21 12:00:58;;;;;;;8.35;1.73;;;;;;;;;;4992764;28;20054;-63
2021/06/21 12:03:31;;;;;;;7.60;1.80;;;;;;;;;;4997415;28;20050;-64
2021/06/21 12:06:00;;;;;;;10.45;1.73;;;;;;;;;;4993451;28;20049;-62
2021/06/21 12:08:35;;;;;;;13.82;2.47;;;;;;;;;;5005806;28;20078;-63
2021/06/21 12:11:17;;;;;;;9.43;2.00;;;;;;;;;;5008032;28;20050;-63
2021/06/21 12:13:55;;;;;;;7.53;1.85;;;;;;;;;;5007284;28;20409;-63
2021/06/21 12:16:25;;;;;;;10.43;1.98;;;;;;;;;;5006970;28;20049;-63
2021/06/21 12:18:54;;;;;;;10.75;2.40;;;;;;;;;;5002842;28;20077;-63
2021/06/21 12:21:29;;;;;;;7.20;2.10;;;;;;;;;;5008846;28;20409;-63
2021/06/21 12:23:57;;;;;;;13.15;2.38;;;;;;;;;;5006479;28;20538;-63
2021/06/21 12:26:36;;;;;;;10.77;2.40;;;;;;;;;;5009568;28;20050;-64
2021/06/21 12:29:18;;;;;;;11.27;2.20;;;;;;;;;;4997561;28;20120;-64
2021/06/21 12:31:58;;;;;;;6.07;1.73;;;;;;;;;;4999024;28;20100;-64
2021/06/21 12:34:46;;;;;;;11.30;2.10;;;;;;;;;;5001474;28;21529;-64
2021/06/21 12:37:19;;;;;;;5.97;2.63;;;;;;;;;;4999541;28;20065;-63
2021/06/21 12:40:06;;;;;;;14.85;2.60;;;;;;;;;;2910074;28;10004014;-65
2021/06/21 12:42:35;;;;;;;10.90;1.90;;;;;;;;;;3280535;28;10001737;-63
2021/06/21 12:45:11;;;;;;;11.55;2.17;;;;;;;;;;5004570;28;20064;-63
2021/06/21 12:47:44;;;;;;;7.32;2.10;;;;;;;;;;5007080;28;20355;-63
2021/06/21 12:50:14;;;;;;;8.38;3.00;;;;;;;;;;5012541;28;20119;-63
2021/06/21 12:52:46;;;;;;;8.38;1.88;;;;;;;;;;5009759;28;20050;-63
2021/06/21 12:55:16;;;;;;;6.93;1.60;;;;;;;;;;5014141;28;20610;-63
2021/06/21 12:57:49;;;;;;;9.90;2.13;;;;;;;;;;5001282;28;20153;-63
2021/06/21 13:00:18;;;;;;;8.27;1.80;;;;;;;;;;5010504;28;20050;-64
2021/06/21 13:02:49;;;;;;;7.82;1.95;;;;;;;;;;4994864;28;20121;-63
2021/06/21 13:05:17;;;;;;;8.70;1.67;;;;;;;;;;5007590;28;20049;-63
2021/06/21 13:07:47;;;;;;;5.82;1.73;;;;;;;;;;5003436;28;20046;-63
2021/06/21 13:10:24;;;;;;;8.02;2.28;;;;;;;;;;5009818;28;20056;-63
2021/06/21 13:12:55;;;;;;;9.93;2.78;;;;;;;;;;4997983;28;20244;-64
2021/06/21 13:15:23;;;;;;;7.25;1.98;;;;;;;;;;4994190;28;20120;-64
2021/06/21 13:17:54;;;;;;;14.77;2.50;;;;;;;;;;5006546;28;20042;-64
2021/06/21 13:20:23;;;;;;;16.08;2.10;;;;;;;;;;5008381;28;20573;-63
2021/06/21 13:22:54;;;;;;;10.93;2.33;;;;;;;;;;5002228;28;20104;-63
2021/06/21 13:25:24;;;;;;;7.60;1.85;;;;;;;;;;5009575;28;20038;-63
2021/06/21 13:27:54;;;;;;;9.55;1.98;;;;;;;;;;5005292;28;20124;-64
2021/06/21 13:30:23;;;;;;;9.23;2.70;;;;;;;;;;5010028;28;20080;-64
2021/06/21 13:32:55;;;;;;;9.50;1.92;;;;;;;;;;5005585;28;20501;-63
2021/06/21 13:35:24;;;;;;;7.25;2.00;;;;;;;;;;5009236;28;20038;-62
2021/06/21 13:37:53;;;;;;;7.80;1.73;;;;;;;;;;5005865;28;20064;-61
2021/06/21 13:40:24;;;;;;;8.95;2.30;;;;;;;;;;4997569;28;20192;-62
2021/06/21 13:42:55;;;;;;;11.60;2.20;;;;;;;;;;5005519;28;20077;-61
2021/06/21 13:45:25;;;;;;;12.98;2.42;;;;;;;;;;5000696;28;20049;-62
2021/06/21 13:48:04;;;;;;;8.80;2.47;;;;;;;;;;4999629;28;20049;-63
2021/06/21 13:50:34;;;;;;;10.63;2.33;;;;;;;;;;5000276;28;20056;-62
2021/06/21 13:53:04;;;;;;;9.80;2.13;;;;;;;;;;5008556;28;20046;-62
2021/06/21 13:55:41;;;;;;;11.40;2.05;;;;;;;;;;5008262;28;20137;-63
2021/06/21 13:58:10;;;;;;;13.00;1.67;;;;;;;;;;4997410;28;20054;-63
2021/06/21 14:00:40;;;;;;;10.70;1.85;;;;;;;;;;4996462;28;20140;-62
2021/06/21 14:03:24;;;;;;;9.00;2.00;;;;;;;;;;5005254;28;20085;-62
2021/06/21 14:05:55;;;;;;;13.25;2.20;;;;;;;;;;5008616;28;20049;-63
2021/06/21 14:08:24;;;;;;;9.43;2.00;;;;;;;;;;5000794;28;20506;-62
2021/06/21 14:10:54;;;;;;;7.97;2.50;;;;;;;;;;4995986;28;20350;-63
2021/06/21 14:13:23;;;;;;;10.88;2.30;;;;;;;;;;4993756;28;20444;-63
2021/06/21 14:15:52;;;;;;;14.80;2.67;;;;;;;;;;4998063;28;20046;-63
2021/06/21 14:18:23;;;;;;;11.70;2.10;;;;;;;;;;4997979;28;20480;-62
2021/06/21 14:20:51;;;;;;;5.90;2.08;;;;;;;;;;5001727;28;20100;-62
2021/06/21 14:23:20;;;;;;;13.32;1.95;;;;;;;;;;5002036;28;20053;-63
2021/06/21 14:25:48;;;;;;;9.43;2.00;;;;;;;;;;5000066;28;20058;-63
2021/06/21 14:28:17;;;;;;;13.23;1.90;;;;;;;;;;5008571;28;20081;-62
2021/06/21 14:30:45;;;;;;;9.70;2.20;;;;;;;;;;5008020;28;20057;-62
2021/06/21 14:33:14;;;;;;;9.80;2.45;;;;;;;;;;5007663;28;20469;-63
2021/06/21 14:35:44;;;;;;;5.15;1.95;;;;;;;;;;4997432;28;20501;-63
2021/06/21 14:38:13;;;;;;;8.68;1.80;;;;;;;;;;5006204;28;20054;-62
2021/06/21 14:40:45;;;;;;;10.07;2.13;;;;;;;;;;5006024;28;20056;-62
2021/06/21 14:43:14;;;;;;;9.85;2.35;;;;;;;;;;5004918;28;20176;-62
2021/06/21 14:45:42;;;;;;;10.43;2.58;;;;;;;;;;5009220;28;20046;-62
2021/06/21 14:48:12;;;;;;;14.35;2.97;;;;;;;;;;4999756;28;20088;-63
2021/06/21 14:50:40;;;;;;;8.95;1.88;;;;;;;;;;5008327;28;20111;-63
2021/06/21 14:53:10;;;;;;;11.50;2.15;;;;;;;;;;5002827;28;20085;-63
2021/06/21 14:55:40;;;;;;;8.85;2.25;;;;;;;;;;5004556;28;20042;-62
2021/06/21 14:58:09;;;;;;;16.58;2.28;;;;;;;;;;4993209;28;20050;-62